Wetterdaten: Woche 06.08.12 - 12.08.12 (KW32)
Datum Zeit Temp. Innen Temp. Aussen UV X Diff Temp. Feuchte Inne Feuchte Auss Sonnenschein Luftdruck Regen ab 0,1 Wind Sonnenschein T Regendauer Windben
06.08.2012 00:00 24,5 C 18,3 C 0,0 UV-I 0,0 C 64 % 92 % 0 % 1008,0 hPa 0,2 l/m 0,0 km/h (0 Bft) 0,00 h 0,47 h 0,0 km/h (0 Bft)
06.08.2012 01:00 24,3 C 17,9 C 0,0 UV-I 0,0 C 64 % 93 % 0 % 1008,3 hPa 0,7 l/m 0,5 km/h (0 Bft) 0,00 h 0,83 h 2,0 km/h (1 Bft)
06.08.2012 02:00 24,1 C 16,9 C 0,0 UV-I 0,0 C 63 % 93 % 0 % 1008,6 hPa 1,5 l/m 0,4 km/h (0 Bft) 0,00 h 0,37 h 2,1 km/h (1 Bft)
06.08.2012 03:00 23,8 C 16,1 C 0,0 UV-I 0,0 C 63 % 94 % 0 % 1008,3 hPa 0,0 l/m 0,0 km/h (0 Bft) 0,00 h 0,00 h 0,0 km/h (0 Bft)
06.08.2012 04:00 23,7 C 16,0 C 0,0 UV-I 0,0 C 63 % 95 % 0 % 1008,4 hPa 0,0 l/m 0,6 km/h (0 Bft) 0,00 h 0,00 h 0,8 km/h (0 Bft)
06.08.2012 05:00 23,4 C 15,6 C 0,0 UV-I 0,0 C 61 % 94 % 0 % 1008,1 hPa 0,0 l/m 2,0 km/h (1 Bft) 0,00 h 0,00 h 4,7 km/h (1 Bft)
06.08.2012 06:00 23,2 C 15,1 C 0,0 UV-I 0,0 C 60 % 94 % 0 % 1008,3 hPa 0,0 l/m 1,5 km/h (1 Bft) 0,00 h 0,00 h 4,3 km/h (1 Bft)
06.08.2012 07:00 23,0 C 15,3 C 0,0 UV-I 0,0 C 60 % 95 % 0 % 1008,9 hPa 0,0 l/m 3,0 km/h (1 Bft) 0,00 h 0,00 h 7,9 km/h (2 Bft)
06.08.2012 08:00 22,9 C 16,4 C 0,6 UV-I 1,9 C 60 % 94 % 43 % 1009,0 hPa 0,0 l/m 5,0 km/h (1 Bft) 0,33 h 0,00 h 10,4 km/h (2 Bft)
06.08.2012 09:00 22,8 C 18,0 C 2,1 UV-I 6,8 C 60 % 87 % 100 % 1009,4 hPa 0,0 l/m 7,4 km/h (2 Bft) 1,00 h 0,00 h 14,7 km/h (3 Bft)
06.08.2012 10:00 22,8 C 19,0 C 2,7 UV-I 4,9 C 59 % 78 % 93 % 1009,8 hPa 0,0 l/m 8,3 km/h (2 Bft) 0,80 h 0,00 h 17,0 km/h (3 Bft)
06.08.2012 11:00 22,9 C 19,5 C 2,2 UV-I 3,5 C 57 % 75 % 90 % 1010,1 hPa 0,0 l/m 6,9 km/h (2 Bft) 0,77 h 0,00 h 10,9 km/h (2 Bft)
06.08.2012 12:00 23,3 C 20,5 C 2,4 UV-I 4,4 C 56 % 69 % 98 % 1010,2 hPa 0,0 l/m 8,7 km/h (2 Bft) 0,93 h 0,00 h 15,3 km/h (3 Bft)
06.08.2012 13:00 23,7 C 20,5 C 1,6 UV-I 2,8 C 54 % 67 % 75 % 1010,2 hPa 0,0 l/m 8,7 km/h (2 Bft) 0,50 h 0,00 h 17,2 km/h (3 Bft)
06.08.2012 14:00 24,2 C 21,3 C 1,7 UV-I 3,4 C 52 % 63 % 85 % 1010,5 hPa 0,0 l/m 8,1 km/h (2 Bft) 0,67 h 0,00 h 12,9 km/h (3 Bft)
06.08.2012 15:00 24,3 C 20,7 C 0,9 UV-I 1,5 C 50 % 64 % 43 % 1010,5 hPa 0,0 l/m 7,1 km/h (2 Bft) 0,00 h 0,00 h 12,0 km/h (2 Bft)
06.08.2012 16:00 24,1 C 20,4 C 0,9 UV-I 1,4 C 50 % 65 % 41 % 1010,8 hPa 0,0 l/m 7,5 km/h (2 Bft) 0,00 h 0,03 h 14,1 km/h (3 Bft)
06.08.2012 17:00 24,4 C 20,8 C 1,2 UV-I 1,8 C 50 % 64 % 52 % 1010,7 hPa 0,0 l/m 8,3 km/h (2 Bft) 0,27 h 0,07 h 14,4 km/h (3 Bft)
06.08.2012 18:00 24,2 C 19,4 C 0,5 UV-I 0,7 C 52 % 74 % 21 % 1011,6 hPa 0,0 l/m 6,9 km/h (2 Bft) 0,00 h 0,00 h 11,6 km/h (2 Bft)
06.08.2012 19:00 23,9 C 19,2 C 0,2 UV-I 0,4 C 53 % 73 % 12 % 1011,9 hPa 0,0 l/m 7,0 km/h (2 Bft) 0,00 h 0,00 h 13,8 km/h (3 Bft)
06.08.2012 20:00 23,5 C 18,8 C 0,0 UV-I 0,0 C 53 % 74 % 0 % 1012,5 hPa 0,0 l/m 4,6 km/h (1 Bft) 0,00 h 0,00 h 9,3 km/h (2 Bft)
06.08.2012 21:00 23,2 C 18,1 C 0,0 UV-I 0,0 C 54 % 76 % 0 % 1013,0 hPa 0,0 l/m 1,9 km/h (1 Bft) 0,00 h 0,00 h 4,1 km/h (1 Bft)
06.08.2012 22:00 23,1 C 17,3 C 0,0 UV-I 0,0 C 54 % 79 % 0 % 1013,9 hPa 0,0 l/m 3,0 km/h (1 Bft) 0,00 h 0,00 h 8,9 km/h (2 Bft)
06.08.2012 23:00 22,8 C 16,7 C 0,0 UV-I 0,0 C 55 % 82 % 0 % 1014,3 hPa 0,0 l/m 4,2 km/h (1 Bft) 0,00 h 0,00 h 9,8 km/h (2 Bft)
07.08.2012 00:00 22,6 C 16,4 C 0,0 UV-I 0,0 C 56 % 84 % 0 % 1014,9 hPa 0,0 l/m 2,5 km/h (1 Bft) 0,00 h 0,00 h 6,3 km/h (2 Bft)
07.08.2012 01:00 22,6 C 16,3 C 0,0 UV-I 0,0 C 56 % 84 % 0 % 1015,7 hPa 0,0 l/m 3,3 km/h (1 Bft) 0,00 h 0,00 h 9,5 km/h (2 Bft)
07.08.2012 02:00 22,4 C 15,8 C 0,0 UV-I 0,0 C 56 % 85 % 0 % 1015,8 hPa 0,0 l/m 4,2 km/h (1 Bft) 0,00 h 0,00 h 9,9 km/h (2 Bft)
07.08.2012 03:00 22,1 C 15,3 C 0,0 UV-I 0,0 C 56 % 85 % 0 % 1016,2 hPa 0,0 l/m 4,1 km/h (1 Bft) 0,00 h 0,00 h 10,3 km/h (2 Bft)
07.08.2012 04:00 22,0 C 14,9 C 0,0 UV-I 0,0 C 55 % 85 % 0 % 1016,3 hPa 0,0 l/m 4,0 km/h (1 Bft) 0,00 h 0,00 h 8,8 km/h (2 Bft)
07.08.2012 05:00 21,7 C 14,3 C 0,0 UV-I 0,0 C 55 % 86 % 0 % 1016,7 hPa 0,0 l/m 4,3 km/h (1 Bft) 0,00 h 0,00 h 8,8 km/h (2 Bft)
07.08.2012 06:00 21,5 C 13,9 C 0,0 UV-I 0,0 C 55 % 87 % 0 % 1017,3 hPa 0,0 l/m 3,6 km/h (1 Bft) 0,00 h 0,00 h 7,7 km/h (2 Bft)
07.08.2012 07:00 21,4 C 14,1 C 0,1 UV-I 0,0 C 56 % 87 % 0 % 1017,8 hPa 0,0 l/m 4,8 km/h (1 Bft) 0,00 h 0,00 h 9,6 km/h (2 Bft)
07.08.2012 08:00 21,6 C 15,3 C 0,5 UV-I 2,2 C 56 % 84 % 40 % 1018,1 hPa 0,0 l/m 7,2 km/h (2 Bft) 0,37 h 0,00 h 13,5 km/h (3 Bft)
07.08.2012 09:00 22,0 C 17,0 C 2,0 UV-I 6,8 C 56 % 77 % 100 % 1018,3 hPa 0,0 l/m 8,2 km/h (2 Bft) 1,00 h 0,00 h 15,0 km/h (3 Bft)
07.08.2012 10:00 22,3 C 18,1 C 3,0 UV-I 5,2 C 54 % 70 % 100 % 1018,9 hPa 0,0 l/m 8,7 km/h (2 Bft) 1,00 h 0,00 h 13,6 km/h (3 Bft)
07.08.2012 11:00 22,7 C 18,8 C 2,4 UV-I 4,1 C 53 % 68 % 100 % 1019,2 hPa 0,0 l/m 7,1 km/h (2 Bft) 1,00 h 0,00 h 13,6 km/h (3 Bft)
07.08.2012 12:00 23,2 C 19,4 C 2,4 UV-I 4,3 C 52 % 67 % 99 % 1019,4 hPa 0,0 l/m 9,7 km/h (2 Bft) 1,00 h 0,00 h 16,4 km/h (3 Bft)
07.08.2012 13:00 23,5 C 19,4 C 1,9 UV-I 3,2 C 51 % 64 % 91 % 1019,8 hPa 0,0 l/m 8,6 km/h (2 Bft) 1,00 h 0,00 h 12,5 km/h (3 Bft)
07.08.2012 14:00 23,8 C 19,6 C 1,6 UV-I 2,7 C 50 % 63 % 78 % 1020,0 hPa 0,0 l/m 7,2 km/h (2 Bft) 0,17 h 0,00 h 12,1 km/h (2 Bft)
07.08.2012 15:00 24,3 C 20,2 C 2,4 UV-I 3,9 C 49 % 61 % 97 % 1020,2 hPa 0,0 l/m 8,3 km/h (2 Bft) 0,97 h 0,00 h 14,8 km/h (3 Bft)
07.08.2012 16:00 25,5 C 20,8 C 2,7 UV-I 3,8 C 46 % 60 % 97 % 1020,1 hPa 0,0 l/m 8,2 km/h (2 Bft) 1,00 h 0,00 h 16,0 km/h (3 Bft)
07.08.2012 17:00 25,4 C 20,2 C 1,0 UV-I 1,7 C 45 % 62 % 48 % 1020,4 hPa 0,0 l/m 6,0 km/h (2 Bft) 0,10 h 0,00 h 11,0 km/h (2 Bft)
07.08.2012 18:00 24,7 C 19,5 C 0,5 UV-I 0,7 C 47 % 65 % 21 % 1020,9 hPa 0,0 l/m 5,4 km/h (1 Bft) 0,00 h 0,00 h 10,5 km/h (2 Bft)
07.08.2012 19:00 24,3 C 19,2 C 0,2 UV-I 0,3 C 48 % 62 % 9 % 1021,2 hPa 0,0 l/m 4,6 km/h (1 Bft) 0,00 h 0,00 h 9,3 km/h (2 Bft)
07.08.2012 20:00 24,0 C 18,4 C 0,0 UV-I 0,0 C 49 % 64 % 0 % 1021,5 hPa 0,0 l/m 2,9 km/h (1 Bft) 0,00 h 0,00 h 6,4 km/h (2 Bft)
07.08.2012 21:00 23,7 C 17,7 C 0,0 UV-I 0,0 C 50 % 67 % 0 % 1022,2 hPa 0,0 l/m 1,0 km/h (0 Bft) 0,00 h 0,00 h 4,4 km/h (1 Bft)
07.08.2012 22:00 23,5 C 17,2 C 0,0 UV-I 0,0 C 50 % 70 % 0 % 1022,4 hPa 0,0 l/m 0,3 km/h (0 Bft) 0,00 h 0,00 h 0,7 km/h (0 Bft)
07.08.2012 23:00 23,2 C 16,9 C 0,0 UV-I 0,0 C 51 % 72 % 0 % 1022,4 hPa 0,0 l/m 0,5 km/h (0 Bft) 0,00 h 0,00 h 1,2 km/h (1 Bft)
08.08.2012 00:00 23,1 C 16,4 C 0,0 UV-I 0,0 C 52 % 74 % 0 % 1022,5 hPa 0,0 l/m 0,1 km/h (0 Bft) 0,00 h 0,00 h 0,7 km/h (0 Bft)
08.08.2012 01:00 23,0 C 15,7 C 0,0 UV-I 0,0 C 52 % 77 % 0 % 1022,6 hPa 0,0 l/m 0,0 km/h (0 Bft) 0,00 h 0,00 h 0,0 km/h (0 Bft)
08.08.2012 02:00 22,8 C 14,6 C 0,0 UV-I 0,0 C 53 % 81 % 0 % 1022,5 hPa 0,0 l/m 0,1 km/h (0 Bft) 0,00 h 0,00 h 0,4 km/h (0 Bft)
08.08.2012 03:00 22,5 C 13,9 C 0,0 UV-I 0,0 C 53 % 82 % 0 % 1022,7 hPa 0,0 l/m 0,1 km/h (0 Bft) 0,00 h 0,00 h 0,3 km/h (0 Bft)
08.08.2012 04:00 22,3 C 12,7 C 0,0 UV-I 0,0 C 54 % 84 % 0 % 1022,8 hPa 0,0 l/m 0,0 km/h (0 Bft) 0,00 h 0,00 h 0,0 km/h (0 Bft)
08.08.2012 05:00 22,1 C 12,2 C 0,0 UV-I 0,0 C 54 % 87 % 0 % 1022,8 hPa 0,0 l/m 0,0 km/h (0 Bft) 0,00 h 0,00 h 0,0 km/h (0 Bft)
08.08.2012 06:00 22,0 C 11,8 C 0,0 UV-I 0,0 C 55 % 89 % 0 % 1023,1 hPa 0,0 l/m 0,0 km/h (0 Bft) 0,00 h 0,00 h 0,0 km/h (0 Bft)
08.08.2012 07:00 22,0 C 12,4 C 0,0 UV-I 0,0 C 55 % 90 % 0 % 1023,3 hPa 0,0 l/m 0,1 km/h (0 Bft) 0,00 h 0,00 h 0,6 km/h (0 Bft)
08.08.2012 08:00 22,0 C 14,3 C 0,3 UV-I 3,1 C 55 % 89 % 43 % 1023,5 hPa 0,0 l/m 1,1 km/h (1 Bft) 0,40 h 0,00 h 4,0 km/h (1 Bft)
08.08.2012 09:00 22,3 C 17,5 C 1,9 UV-I 8,5 C 55 % 79 % 100 % 1023,9 hPa 0,0 l/m 2,9 km/h (1 Bft) 1,00 h 0,00 h 6,1 km/h (2 Bft)
08.08.2012 10:00 22,7 C 18,8 C 3,7 UV-I 7,0 C 54 % 72 % 100 % 1024,0 hPa 0,0 l/m 3,0 km/h (1 Bft) 1,00 h 0,00 h 7,0 km/h (2 Bft)
08.08.2012 11:00 23,1 C 19,7 C 2,9 UV-I 5,9 C 53 % 68 % 100 % 1024,0 hPa 0,0 l/m 4,2 km/h (1 Bft) 1,00 h 0,00 h 8,9 km/h (2 Bft)
08.08.2012 12:00 23,5 C 20,8 C 3,2 UV-I 6,4 C 52 % 65 % 100 % 1024,0 hPa 0,0 l/m 4,5 km/h (1 Bft) 1,00 h 0,00 h 9,7 km/h (2 Bft)
08.08.2012 13:00 23,9 C 20,6 C 1,6 UV-I 3,6 C 51 % 66 % 91 % 1023,8 hPa 0,0 l/m 4,8 km/h (1 Bft) 0,73 h 0,00 h 10,7 km/h (2 Bft)
08.08.2012 14:00 24,4 C 21,1 C 2,7 UV-I 5,4 C 51 % 68 % 100 % 1023,9 hPa 0,0 l/m 5,0 km/h (1 Bft) 1,00 h 0,00 h 10,1 km/h (2 Bft)
08.08.2012 15:00 24,8 C 20,8 C 1,6 UV-I 3,8 C 51 % 69 % 98 % 1023,6 hPa 0,0 l/m 4,1 km/h (1 Bft) 1,00 h 0,00 h 8,3 km/h (2 Bft)
08.08.2012 16:00 24,9 C 20,9 C 1,7 UV-I 3,2 C 51 % 70 % 89 % 1023,0 hPa 0,0 l/m 4,4 km/h (1 Bft) 0,73 h 0,00 h 8,8 km/h (2 Bft)
08.08.2012 17:00 24,9 C 20,9 C 0,8 UV-I 2,2 C 51 % 70 % 62 % 1022,7 hPa 0,0 l/m 3,6 km/h (1 Bft) 0,00 h 0,00 h 7,4 km/h (2 Bft)
08.08.2012 18:00 24,6 C 19,7 C 0,1 UV-I 0,4 C 51 % 76 % 11 % 1023,0 hPa 0,5 l/m 3,1 km/h (1 Bft) 0,00 h 0,40 h 7,1 km/h (2 Bft)
08.08.2012 19:00 24,3 C 18,2 C 0,3 UV-I 0,0 C 53 % 86 % 1 % 1022,9 hPa 0,0 l/m 0,3 km/h (0 Bft) 0,00 h 0,00 h 0,7 km/h (0 Bft)
08.08.2012 20:00 24,1 C 18,1 C 0,0 UV-I 0,0 C 55 % 88 % 0 % 1022,7 hPa 0,0 l/m 0,0 km/h (0 Bft) 0,00 h 0,03 h 0,0 km/h (0 Bft)
08.08.2012 21:00 23,8 C 17,2 C 0,0 UV-I 0,0 C 56 % 89 % 0 % 1022,9 hPa 0,0 l/m 0,0 km/h (0 Bft) 0,00 h 0,03 h 0,0 km/h (0 Bft)
08.08.2012 22:00 23,4 C 16,2 C 0,0 UV-I 0,0 C 57 % 91 % 0 % 1023,2 hPa 0,0 l/m 0,0 km/h (0 Bft) 0,00 h 0,03 h 0,0 km/h (0 Bft)
08.08.2012 23:00 23,2 C 15,6 C 0,0 UV-I 0,0 C 58 % 92 % 0 % 1023,2 hPa 0,0 l/m 0,0 km/h (0 Bft) 0,00 h 0,00 h 0,0 km/h (0 Bft)
09.08.2012 00:00 23,0 C 15,2 C 0,0 UV-I 0,0 C 59 % 93 % 0 % 1023,3 hPa 0,1 l/m 0,0 km/h (0 Bft) 0,00 h 0,03 h 0,0 km/h (0 Bft)
09.08.2012 01:00 22,8 C 15,1 C 0,0 UV-I 0,0 C 60 % 94 % 0 % 1023,4 hPa 0,0 l/m 0,0 km/h (0 Bft) 0,00 h 0,00 h 0,0 km/h (0 Bft)
09.08.2012 02:00 22,8 C 15,4 C 0,0 UV-I 0,0 C 60 % 95 % 0 % 1023,3 hPa 0,0 l/m 0,0 km/h (0 Bft) 0,00 h 0,00 h 0,0 km/h (0 Bft)
09.08.2012 03:00 22,8 C 15,5 C 0,0 UV-I 0,0 C 60 % 95 % 0 % 1023,1 hPa 0,0 l/m 0,0 km/h (0 Bft) 0,00 h 0,00 h 0,0 km/h (0 Bft)
09.08.2012 04:00 22,8 C 15,7 C 0,0 UV-I 0,0 C 61 % 96 % 0 % 1022,9 hPa 0,0 l/m 0,0 km/h (0 Bft) 0,00 h 0,03 h 0,0 km/h (0 Bft)
09.08.2012 05:00 22,7 C 15,4 C 0,0 UV-I 0,0 C 61 % 96 % 0 % 1023,1 hPa 0,0 l/m 0,2 km/h (0 Bft) 0,00 h 0,00 h 0,9 km/h (0 Bft)
09.08.2012 06:00 22,6 C 15,4 C 0,0 UV-I 0,0 C 61 % 97 % 0 % 1023,4 hPa 0,0 l/m 1,3 km/h (1 Bft) 0,00 h 0,00 h 2,2 km/h (1 Bft)
09.08.2012 07:00 22,6 C 15,5 C 0,0 UV-I 0,0 C 62 % 97 % 0 % 1023,6 hPa 0,0 l/m 0,9 km/h (0 Bft) 0,00 h 0,00 h 1,7 km/h (1 Bft)
09.08.2012 08:00 22,6 C 15,5 C 0,0 UV-I 0,0 C 62 % 97 % 0 % 1024,0 hPa 0,0 l/m 1,3 km/h (1 Bft) 0,00 h 0,00 h 3,7 km/h (1 Bft)
09.08.2012 09:00 22,7 C 15,7 C 0,1 UV-I 0,5 C 62 % 97 % 14 % 1024,4 hPa 0,0 l/m 3,3 km/h (1 Bft) 0,00 h 0,00 h 8,1 km/h (2 Bft)
09.08.2012 10:00 23,0 C 16,7 C 1,0 UV-I 2,8 C 61 % 97 % 75 % 1024,9 hPa 0,0 l/m 3,2 km/h (1 Bft) 0,40 h 0,00 h 6,3 km/h (2 Bft)
09.08.2012 11:00 23,5 C 18,9 C 2,5 UV-I 5,6 C 60 % 92 % 100 % 1024,9 hPa 0,0 l/m 6,4 km/h (2 Bft) 1,00 h 0,00 h 12,6 km/h (3 Bft)
09.08.2012 12:00 23,9 C 20,2 C 2,0 UV-I 4,1 C 58 % 80 % 91 % 1024,8 hPa 0,0 l/m 8,5 km/h (2 Bft) 0,80 h 0,00 h 15,4 km/h (3 Bft)
09.08.2012 13:00 24,2 C 21,0 C 2,5 UV-I 4,6 C 58 % 72 % 100 % 1024,7 hPa 0,0 l/m 7,6 km/h (2 Bft) 1,00 h 0,00 h 12,4 km/h (3 Bft)
09.08.2012 14:00 24,9 C 22,4 C 2,5 UV-I 5,2 C 56 % 64 % 100 % 1025,1 hPa 0,0 l/m 8,3 km/h (2 Bft) 1,00 h 0,00 h 14,5 km/h (3 Bft)
09.08.2012 15:00 25,3 C 22,7 C 2,8 UV-I 4,7 C 54 % 59 % 94 % 1025,3 hPa 0,0 l/m 10,6 km/h (2 Bft) 0,87 h 0,00 h 18,7 km/h (3 Bft)
09.08.2012 16:00 25,1 C 22,5 C 2,8 UV-I 3,4 C 54 % 60 % 85 % 1025,3 hPa 0,0 l/m 10,9 km/h (2 Bft) 0,67 h 0,00 h 17,1 km/h (3 Bft)
09.08.2012 17:00 24,8 C 21,7 C 0,9 UV-I 1,8 C 54 % 62 % 51 % 1024,6 hPa 0,0 l/m 8,9 km/h (2 Bft) 0,03 h 0,00 h 14,1 km/h (3 Bft)
09.08.2012 18:00 24,9 C 21,1 C 0,8 UV-I 1,3 C 54 % 64 % 36 % 1024,2 hPa 0,0 l/m 12,8 km/h (3 Bft) 0,00 h 0,00 h 18,9 km/h (3 Bft)
09.08.2012 19:00 24,9 C 20,8 C 0,4 UV-I 0,5 C 53 % 64 % 14 % 1024,5 hPa 0,0 l/m 10,6 km/h (2 Bft) 0,00 h 0,00 h 14,9 km/h (3 Bft)
09.08.2012 20:00 24,6 C 19,8 C 0,0 UV-I 0,0 C 54 % 68 % 0 % 1024,8 hPa 0,0 l/m 4,5 km/h (1 Bft) 0,00 h 0,00 h 6,5 km/h (2 Bft)
09.08.2012 21:00 24,2 C 18,7 C 0,0 UV-I 0,0 C 55 % 70 % 0 % 1025,0 hPa 0,0 l/m 3,5 km/h (1 Bft) 0,00 h 0,00 h 8,4 km/h (2 Bft)
09.08.2012 22:00 23,9 C 17,4 C 0,0 UV-I 0,0 C 55 % 72 % 0 % 1025,8 hPa 0,0 l/m 5,6 km/h (1 Bft) 0,00 h 0,00 h 8,8 km/h (2 Bft)
09.08.2012 23:00 23,6 C 16,0 C 0,0 UV-I 0,0 C 55 % 76 % 0 % 1026,1 hPa 0,0 l/m 2,8 km/h (1 Bft) 0,00 h 0,00 h 5,1 km/h (1 Bft)
10.08.2012 00:00 23,2 C 14,4 C 0,0 UV-I 0,0 C 56 % 79 % 0 % 1026,4 hPa 0,0 l/m 0,0 km/h (0 Bft) 0,00 h 0,00 h 0,0 km/h (0 Bft)
10.08.2012 01:00 22,9 C 13,0 C 0,0 UV-I 0,0 C 56 % 84 % 0 % 1026,6 hPa 0,0 l/m 0,0 km/h (0 Bft) 0,00 h 0,00 h 0,0 km/h (0 Bft)
10.08.2012 02:00 22,6 C 12,1 C 0,0 UV-I 0,0 C 56 % 86 % 0 % 1026,6 hPa 0,0 l/m 0,0 km/h (0 Bft) 0,00 h 0,00 h 0,0 km/h (0 Bft)
10.08.2012 03:00 22,4 C 11,2 C 0,0 UV-I 0,0 C 56 % 88 % 0 % 1026,7 hPa 0,0 l/m 0,0 km/h (0 Bft) 0,00 h 0,00 h 0,0 km/h (0 Bft)
10.08.2012 04:00 22,1 C 10,6 C 0,0 UV-I 0,0 C 56 % 90 % 0 % 1026,4 hPa 0,0 l/m 0,0 km/h (0 Bft) 0,00 h 0,00 h 0,0 km/h (0 Bft)
10.08.2012 05:00 22,0 C 10,2 C 0,0 UV-I 0,0 C 55 % 92 % 0 % 1026,4 hPa 0,0 l/m 0,0 km/h (0 Bft) 0,00 h 0,00 h 0,0 km/h (0 Bft)
10.08.2012 06:00 21,8 C 9,8 C 0,0 UV-I 0,0 C 55 % 92 % 0 % 1026,6 hPa 0,0 l/m 0,0 km/h (0 Bft) 0,00 h 0,00 h 0,0 km/h (0 Bft)
10.08.2012 07:00 21,8 C 10,5 C 0,0 UV-I 0,0 C 56 % 94 % 0 % 1026,9 hPa 0,0 l/m 0,0 km/h (0 Bft) 0,00 h 0,00 h 0,0 km/h (0 Bft)
10.08.2012 08:00 21,8 C 13,0 C 0,2 UV-I 2,1 C 56 % 93 % 38 % 1027,0 hPa 0,0 l/m 0,0 km/h (0 Bft) 0,33 h 0,00 h 0,0 km/h (0 Bft)
10.08.2012 09:00 22,0 C 15,9 C 1,6 UV-I 7,6 C 56 % 81 % 100 % 1027,1 hPa 0,0 l/m 5,9 km/h (2 Bft) 1,00 h 0,00 h 11,8 km/h (2 Bft)
10.08.2012 10:00 22,2 C 17,0 C 2,6 UV-I 5,2 C 56 % 74 % 93 % 1027,1 hPa 0,0 l/m 7,5 km/h (2 Bft) 0,80 h 0,00 h 10,7 km/h (2 Bft)
10.08.2012 11:00 22,6 C 19,1 C 4,4 UV-I 8,9 C 55 % 65 % 100 % 1026,9 hPa 0,0 l/m 5,0 km/h (1 Bft) 1,00 h 0,00 h 10,3 km/h (2 Bft)
10.08.2012 12:00 23,3 C 19,0 C 2,0 UV-I 4,6 C 54 % 63 % 96 % 1026,7 hPa 0,0 l/m 6,4 km/h (2 Bft) 0,90 h 0,00 h 11,8 km/h (2 Bft)
10.08.2012 13:00 23,8 C 20,3 C 2,8 UV-I 6,6 C 52 % 59 % 100 % 1026,2 hPa 0,0 l/m 7,9 km/h (2 Bft) 1,00 h 0,00 h 13,3 km/h (3 Bft)
10.08.2012 14:00 24,9 C 21,2 C 2,9 UV-I 6,4 C 50 % 56 % 100 % 1026,8 hPa 0,0 l/m 9,0 km/h (2 Bft) 1,00 h 0,00 h 14,7 km/h (3 Bft)
10.08.2012 15:00 26,3 C 21,9 C 3,4 UV-I 6,1 C 46 % 53 % 100 % 1025,8 hPa 0,0 l/m 7,6 km/h (2 Bft) 1,00 h 0,00 h 14,4 km/h (3 Bft)
10.08.2012 16:00 27,4 C 21,9 C 3,8 UV-I 5,1 C 43 % 51 % 100 % 1025,0 hPa 0,0 l/m 10,5 km/h (2 Bft) 1,00 h 0,00 h 17,0 km/h (3 Bft)
10.08.2012 17:00 27,9 C 21,6 C 2,8 UV-I 4,3 C 42 % 52 % 95 % 1024,3 hPa 0,0 l/m 11,0 km/h (2 Bft) 0,90 h 0,00 h 18,3 km/h (3 Bft)
10.08.2012 18:00 27,0 C 21,0 C 0,9 UV-I 1,5 C 43 % 53 % 44 % 1024,6 hPa 0,0 l/m 11,4 km/h (2 Bft) 0,10 h 0,00 h 19,4 km/h (3 Bft)
10.08.2012 19:00 26,0 C 20,6 C 0,4 UV-I 0,1 C 44 % 53 % 1 % 1024,5 hPa 0,0 l/m 8,8 km/h (2 Bft) 0,00 h 0,00 h 14,0 km/h (3 Bft)
10.08.2012 20:00 25,2 C 19,5 C 0,0 UV-I 0,0 C 46 % 56 % 0 % 1024,5 hPa 0,0 l/m 7,5 km/h (2 Bft) 0,00 h 0,00 h 9,1 km/h (2 Bft)
10.08.2012 21:00 24,6 C 17,5 C 0,0 UV-I 0,0 C 47 % 62 % 0 % 1024,9 hPa 0,0 l/m 0,0 km/h (0 Bft) 0,00 h 0,00 h 0,0 km/h (0 Bft)
10.08.2012 22:00 24,2 C 15,5 C 0,0 UV-I 0,0 C 48 % 70 % 0 % 1025,2 hPa 0,0 l/m 0,0 km/h (0 Bft) 0,00 h 0,00 h 0,0 km/h (0 Bft)
10.08.2012 23:00 23,8 C 14,0 C 0,0 UV-I 0,0 C 49 % 77 % 0 % 1025,2 hPa 0,0 l/m 0,0 km/h (0 Bft) 0,00 h 0,00 h 0,0 km/h (0 Bft)
11.08.2012 00:00 23,3 C 12,8 C 0,0 UV-I 0,0 C 50 % 81 % 0 % 1025,1 hPa 0,0 l/m 0,0 km/h (0 Bft) 0,00 h 0,00 h 0,0 km/h (0 Bft)
11.08.2012 01:00 23,0 C 12,1 C 0,0 UV-I 0,0 C 51 % 85 % 0 % 1025,0 hPa 0,0 l/m 0,0 km/h (0 Bft) 0,00 h 0,00 h 0,0 km/h (0 Bft)
11.08.2012 02:00 22,7 C 11,4 C 0,0 UV-I 0,0 C 52 % 87 % 0 % 1024,6 hPa 0,0 l/m 0,1 km/h (0 Bft) 0,00 h 0,00 h 0,5 km/h (0 Bft)
11.08.2012 03:00 22,5 C 11,0 C 0,0 UV-I 0,0 C 52 % 89 % 0 % 1024,6 hPa 0,0 l/m 0,0 km/h (0 Bft) 0,00 h 0,00 h 0,0 km/h (0 Bft)
11.08.2012 04:00 22,3 C 10,6 C 0,0 UV-I 0,0 C 52 % 90 % 0 % 1024,4 hPa 0,0 l/m 0,0 km/h (0 Bft) 0,00 h 0,00 h 0,0 km/h (0 Bft)
11.08.2012 05:00 22,1 C 10,2 C 0,0 UV-I 0,0 C 53 % 92 % 0 % 1024,2 hPa 0,0 l/m 0,0 km/h (0 Bft) 0,00 h 0,00 h 0,0 km/h (0 Bft)
11.08.2012 06:00 21,9 C 9,8 C 0,0 UV-I 0,0 C 53 % 92 % 0 % 1024,1 hPa 0,0 l/m 0,0 km/h (0 Bft) 0,00 h 0,00 h 0,0 km/h (0 Bft)
11.08.2012 07:00 21,9 C 10,3 C 0,0 UV-I 0,1 C 53 % 94 % 3 % 1024,2 hPa 0,0 l/m 0,1 km/h (0 Bft) 0,00 h 0,00 h 0,7 km/h (0 Bft)
11.08.2012 08:00 22,0 C 12,5 C 0,4 UV-I 2,8 C 54 % 95 % 48 % 1024,3 hPa 0,0 l/m 0,4 km/h (0 Bft) 0,37 h 0,00 h 2,4 km/h (1 Bft)
11.08.2012 09:00 22,2 C 16,2 C 1,6 UV-I 8,8 C 54 % 88 % 100 % 1024,2 hPa 0,0 l/m 1,6 km/h (1 Bft) 1,00 h 0,00 h 4,1 km/h (1 Bft)
11.08.2012 10:00 22,5 C 18,7 C 3,4 UV-I 8,4 C 54 % 75 % 100 % 1024,1 hPa 0,0 l/m 2,9 km/h (1 Bft) 1,00 h 0,00 h 7,0 km/h (2 Bft)
11.08.2012 11:00 23,0 C 19,0 C 1,8 UV-I 4,1 C 53 % 69 % 98 % 1023,6 hPa 0,0 l/m 5,0 km/h (1 Bft) 1,00 h 0,00 h 8,4 km/h (2 Bft)
11.08.2012 12:00 23,5 C 19,6 C 1,6 UV-I 3,5 C 52 % 66 % 98 % 1022,9 hPa 0,0 l/m 6,8 km/h (2 Bft) 1,00 h 0,00 h 11,3 km/h (2 Bft)
11.08.2012 13:00 24,0 C 20,7 C 2,3 UV-I 4,7 C 51 % 61 % 98 % 1022,3 hPa 0,0 l/m 8,2 km/h (2 Bft) 1,00 h 0,00 h 14,4 km/h (3 Bft)
11.08.2012 14:00 24,9 C 22,3 C 2,7 UV-I 5,7 C 49 % 55 % 100 % 1022,6 hPa 0,0 l/m 6,5 km/h (2 Bft) 1,00 h 0,00 h 11,8 km/h (2 Bft)
11.08.2012 15:00 26,3 C 23,1 C 3,5 UV-I 5,6 C 46 % 53 % 100 % 1021,3 hPa 0,0 l/m 7,0 km/h (2 Bft) 1,00 h 0,00 h 12,3 km/h (3 Bft)
11.08.2012 16:00 27,7 C 23,4 C 4,3 UV-I 5,3 C 43 % 52 % 100 % 1020,1 hPa 0,0 l/m 7,9 km/h (2 Bft) 1,00 h 0,00 h 13,9 km/h (3 Bft)
11.08.2012 17:00 28,3 C 23,8 C 3,1 UV-I 4,9 C 41 % 50 % 100 % 1019,1 hPa 0,0 l/m 6,2 km/h (2 Bft) 1,00 h 0,00 h 8,9 km/h (2 Bft)
11.08.2012 18:00 27,4 C 22,6 C 0,9 UV-I 1,8 C 42 % 54 % 47 % 1019,0 hPa 0,0 l/m 6,9 km/h (2 Bft) 0,20 h 0,00 h 11,1 km/h (2 Bft)
11.08.2012 19:00 26,2 C 21,6 C 0,4 UV-I 0,0 C 44 % 57 % 0 % 1018,8 hPa 0,0 l/m 4,8 km/h (1 Bft) 0,00 h 0,00 h 9,5 km/h (2 Bft)
11.08.2012 20:00 25,4 C 20,4 C 0,0 UV-I 0,0 C 45 % 61 % 0 % 1018,5 hPa 0,0 l/m 2,1 km/h (1 Bft) 0,00 h 0,00 h 3,8 km/h (1 Bft)
11.08.2012 21:00 24,9 C 19,0 C 0,0 UV-I 0,0 C 47 % 66 % 0 % 1018,5 hPa 0,0 l/m 0,5 km/h (0 Bft) 0,00 h 0,00 h 1,1 km/h (1 Bft)
11.08.2012 22:00 24,5 C 17,8 C 0,0 UV-I 0,0 C 48 % 70 % 0 % 1018,5 hPa 0,0 l/m 0,3 km/h (0 Bft) 0,00 h 0,00 h 2,2 km/h (1 Bft)
11.08.2012 23:00 24,2 C 16,8 C 0,0 UV-I 0,0 C 49 % 73 % 0 % 1018,3 hPa 0,0 l/m 0,1 km/h (0 Bft) 0,00 h 0,00 h 0,5 km/h (0 Bft)
12.08.2012 00:00 24,0 C 15,2 C 0,0 UV-I 0,0 C 50 % 78 % 0 % 1018,2 hPa 0,0 l/m 0,0 km/h (0 Bft) 0,00 h 0,00 h 0,0 km/h (0 Bft)
12.08.2012 01:00 23,7 C 13,9 C 0,0 UV-I 0,0 C 51 % 82 % 0 % 1017,8 hPa 0,0 l/m 0,0 km/h (0 Bft) 0,00 h 0,00 h 0,0 km/h (0 Bft)
12.08.2012 02:00 23,3 C 13,0 C 0,0 UV-I 0,0 C 52 % 85 % 0 % 1017,3 hPa 0,0 l/m 0,0 km/h (0 Bft) 0,00 h 0,00 h 0,0 km/h (0 Bft)
12.08.2012 03:00 23,0 C 12,1 C 0,0 UV-I 0,0 C 52 % 87 % 0 % 1017,1 hPa 0,0 l/m 0,0 km/h (0 Bft) 0,00 h 0,00 h 0,0 km/h (0 Bft)
12.08.2012 04:00 22,8 C 11,3 C 0,0 UV-I 0,0 C 53 % 89 % 0 % 1016,9 hPa 0,0 l/m 0,0 km/h (0 Bft) 0,00 h 0,00 h 0,0 km/h (0 Bft)
12.08.2012 05:00 22,5 C 10,8 C 0,0 UV-I 0,0 C 53 % 90 % 0 % 1016,6 hPa 0,0 l/m 0,0 km/h (0 Bft) 0,00 h 0,03 h 0,0 km/h (0 Bft)
12.08.2012 06:00 22,3 C 10,1 C 0,0 UV-I 0,0 C 53 % 91 % 0 % 1016,2 hPa 0,0 l/m 0,0 km/h (0 Bft) 0,00 h 0,00 h 0,0 km/h (0 Bft)
12.08.2012 07:00 22,2 C 10,6 C 0,0 UV-I 0,0 C 53 % 93 % 0 % 1016,0 hPa 0,0 l/m 0,0 km/h (0 Bft) 0,00 h 0,00 h 0,0 km/h (0 Bft)
12.08.2012 08:00 22,2 C 13,1 C 0,3 UV-I 3,0 C 53 % 93 % 46 % 1016,0 hPa 0,0 l/m 1,0 km/h (0 Bft) 0,40 h 0,00 h 3,2 km/h (1 Bft)
12.08.2012 09:00 22,5 C 17,8 C 1,7 UV-I 8,0 C 53 % 77 % 100 % 1016,1 hPa 0,0 l/m 5,3 km/h (1 Bft) 1,00 h 0,00 h 9,4 km/h (2 Bft)
12.08.2012 10:00 22,9 C 20,8 C 4,2 UV-I 6,8 C 53 % 62 % 100 % 1016,0 hPa 0,0 l/m 7,9 km/h (2 Bft) 1,00 h 0,00 h 13,6 km/h (3 Bft)
12.08.2012 11:00 23,3 C 22,6 C 4,8 UV-I 5,9 C 51 % 52 % 100 % 1015,6 hPa 0,0 l/m 9,1 km/h (2 Bft) 1,00 h 0,00 h 14,2 km/h (3 Bft)
12.08.2012 12:00 23,8 C 23,8 C 3,7 UV-I 5,4 C 51 % 47 % 100 % 1015,1 hPa 0,0 l/m 9,7 km/h (2 Bft) 1,00 h 0,00 h 17,3 km/h (3 Bft)
12.08.2012 13:00 24,4 C 24,8 C 2,8 UV-I 4,7 C 49 % 45 % 100 % 1014,8 hPa 0,0 l/m 10,7 km/h (2 Bft) 1,00 h 0,00 h 15,2 km/h (3 Bft)
12.08.2012 14:00 25,5 C 25,3 C 2,5 UV-I 4,0 C 47 % 44 % 99 % 1015,1 hPa 0,0 l/m 9,7 km/h (2 Bft) 1,00 h 0,00 h 17,5 km/h (3 Bft)
12.08.2012 15:00 26,9 C 26,4 C 3,5 UV-I 4,6 C 44 % 40 % 100 % 1014,2 hPa 0,0 l/m 8,9 km/h (2 Bft) 1,00 h 0,00 h 12,5 km/h (3 Bft)
12.08.2012 16:00 27,1 C 26,6 C 4,2 UV-I 4,2 C 42 % 40 % 100 % 1013,9 hPa 0,0 l/m 8,4 km/h (2 Bft) 1,00 h 0,00 h 14,6 km/h (3 Bft)
12.08.2012 17:00 26,3 C 26,2 C 2,7 UV-I 3,4 C 44 % 42 % 97 % 1013,4 hPa 0,0 l/m 6,9 km/h (2 Bft) 1,00 h 0,00 h 11,3 km/h (2 Bft)
12.08.2012 18:00 26,0 C 25,4 C 0,9 UV-I 1,5 C 45 % 44 % 43 % 1013,0 hPa 0,0 l/m 6,5 km/h (2 Bft) 0,13 h 0,00 h 10,4 km/h (2 Bft)
12.08.2012 19:00 25,7 C 24,5 C 0,3 UV-I 0,0 C 45 % 45 % 0 % 1013,1 hPa 0,0 l/m 5,2 km/h (1 Bft) 0,00 h 0,00 h 10,1 km/h (2 Bft)
12.08.2012 20:00 25,3 C 23,5 C 0,0 UV-I 0,0 C 46 % 48 % 0 % 1013,1 hPa 0,0 l/m 2,3 km/h (1 Bft) 0,00 h 0,00 h 5,4 km/h (1 Bft)
12.08.2012 21:00 25,0 C 22,1 C 0,0 UV-I 0,0 C 47 % 51 % 0 % 1013,2 hPa 0,0 l/m 0,9 km/h (0 Bft) 0,00 h 0,00 h 3,9 km/h (1 Bft)
12.08.2012 22:00 24,8 C 20,9 C 0,0 UV-I 0,0 C 48 % 55 % 0 % 1013,3 hPa 0,0 l/m 0,3 km/h (0 Bft) 0,00 h 0,00 h 1,7 km/h (1 Bft)
12.08.2012 23:00 24,6 C 19,2 C 0,0 UV-I 0,0 C 48 % 60 % 0 % 1013,3 hPa 0,0 l/m 0,0 km/h (0 Bft) 0,00 h 0,00 h 0,0 km/h (0 Bft)
Min-Datum _ 07.08.12 11.08.12 06.08.12 06.08.12 10.08.12 12.08.12 06.08.12 06.08.12 - 06.08.12 - - 06.08.12
_ Min-Zeit 07:30 06:38 00:00 00:00 17:12 15:24 00:00 00:00 - 00:00 - - 00:00
Minimum _ 21,2 C 9,6 C 0,0 UV-I 0,0 C 41 % 39 % 0 % 1007,7 hPa - 0,0 km/h (0 Bft) - - 0,0 km/h (0 Bft)
Max-Datum _ 11.08.12 12.08.12 08.08.12 10.08.12 06.08.12 09.08.12 06.08.12 09.08.12 06.08.12 09.08.12 06.08.12 06.08.12 07.08.12
_ Max-Zeit 17:22 16:22 10:44 11:34 00:00 10:16 08:44 15:52 02:12 18:14 08:40 00:02 09:52
Maximum _ 28,4 C 26,8 C 5,6 UV-I 10,8 C 64 % 98 % 100 % 1028,1 hPa 1,5 l/m 15,7 km/h
W (3 Bft)
0,03 h 0,03 h 43,4 km/h
SW (6 Bft)
Durchschnitt _ 23,7 C 17,6 C 1,0 UV-I 1,9 C 53 % 75 % 37 % 1020,0 hPa #3,1 l/m 3,9 km/h (1 Bft) #54:38 h #2:24 h 7,1 km/h (2 Bft)
© 2012 W. Hausmann